Verdoy, New York
Current Conditions -  °F | °C
As of 11:51 PM on Saturday 22 Nov 2014 (Local Time) from KALB Reporting Station
Light Rain Light Rain  
Wind Chill: 31°   Ceiling: 3200
Heat Index: 37°   Visibility: 10mi
Dew Point: 28°   Wind: 8mph
Humidity: 70%   Direction: 160°SSE
Pressure: 30.09"   Gusts: NA
Location:  42.7511°N, 73.7732°W
Report Text: KALB 230451Z 16007KT 10SM -RA OVC032 03/M02 A3009 RMK AO2 RAE34B42 SLP191 PCPN VRY LGT AND INTMT P0001 T00281022 400441094
Loading
Personal Weather Stations






























Interactive Weather Map New forecast layout! Learn more

10-Day Weather Forecast

Advertisements
Track Severe Weather on mobile